Time;durP1;ratioP1;P1;durP2;ratioP2;P2;SDS_P1;SDS_P2;PMS_P1;PMS_P2;Temp;Humidity;BMP_temperature;BMP_pressure;BME280_temperature;BME280_humidity;BME280_pressure;Samples;Min_cycle;Max_cycle;Signal;HPM_P1;HPM_P2
2023/07/21 00:01:24;;;;;;;5.63;1.50;;;15.30;99.90;;;;;;5016879;28;20535;-77
2023/07/21 00:04:11;;;;;;;2.80;1.50;;;15.30;99.90;;;;;;5008607;28;20053;-78
2023/07/21 00:06:57;;;;;;;3.20;1.52;;;15.30;99.90;;;;;;5002997;28;20902;-74
2023/07/21 00:09:43;;;;;;;2.65;1.58;;;15.30;99.90;;;;;;5012720;28;20046;-75
2023/07/21 00:12:29;;;;;;;6.45;1.60;;;15.30;99.90;;;;;;5000573;28;20053;-74
2023/07/21 00:15:17;;;;;;;4.40;1.60;;;15.30;99.90;;;;;;5000149;28;20128;-74
2023/07/21 00:18:03;;;;;;;4.47;1.58;;;15.30;99.90;;;;;;4999373;28;20037;-75
2023/07/21 00:20:50;;;;;;;3.13;1.55;;;15.30;99.90;;;;;;5000962;28;20042;-75
2023/07/21 00:23:36;;;;;;;3.00;1.30;;;15.30;99.90;;;;;;4968978;28;20084;-75
2023/07/21 00:26:22;;;;;;;3.67;1.60;;;15.20;99.90;;;;;;4986200;28;20046;-74
2023/07/21 00:29:08;;;;;;;3.05;1.73;;;15.20;99.90;;;;;;4982150;28;20045;-75
2023/07/21 00:31:54;;;;;;;4.95;1.40;;;15.20;99.90;;;;;;4999363;28;20111;-74
2023/07/21 00:34:40;;;;;;;5.80;1.63;;;15.20;99.90;;;;;;4988317;28;20099;-78
2023/07/21 00:37:26;;;;;;;2.65;1.30;;;15.20;99.90;;;;;;4968625;28;20046;-78
2023/07/21 00:40:19;;;;;;;3.97;1.75;;;15.20;99.90;;;;;;4992007;28;20033;-78
2023/07/21 00:43:06;;;;;;;2.10;1.40;;;15.10;99.90;;;;;;4957995;28;20042;-78
2023/07/21 00:45:52;;;;;;;3.80;1.40;;;15.10;99.90;;;;;;4982194;28;20525;-78
2023/07/21 00:48:38;;;;;;;2.83;1.58;;;15.10;99.90;;;;;;5000551;28;20084;-78
2023/07/21 00:51:24;;;;;;;4.13;1.55;;;15.10;99.90;;;;;;4975691;28;20041;-78
2023/07/21 00:54:11;;;;;;;3.88;1.48;;;15.10;99.90;;;;;;5000974;28;20060;-78
2023/07/21 00:56:57;;;;;;;3.13;1.30;;;15.10;99.90;;;;;;4983267;28;20038;-78
2023/07/21 00:59:43;;;;;;;3.35;1.58;;;15.10;99.90;;;;;;4983555;28;20046;-78
2023/07/21 01:02:31;;;;;;;3.63;1.38;;;15.10;99.90;;;;;;5008188;28;20682;-78
2023/07/21 01:05:17;;;;;;;2.22;1.40;;;15.10;99.90;;;;;;4993843;28;20100;-78
2023/07/21 01:08:07;;;;;;;2.72;1.30;;;15.10;99.90;;;;;;4993055;28;20637;-78
2023/07/21 01:10:53;;;;;;;2.28;1.20;;;15.10;99.90;;;;;;4988746;28;20049;-78
2023/07/21 01:13:40;;;;;;;2.50;1.30;;;15.10;99.90;;;;;;4968870;28;20038;-78
2023/07/21 01:16:26;;;;;;;1.95;1.15;;;15.20;99.90;;;;;;4981866;28;20034;-78
2023/07/21 01:19:16;;;;;;;3.97;1.25;;;15.20;99.90;;;;;;4987439;28;20779;-78
2023/07/21 01:22:11;;;;;;;3.92;1.25;;;15.20;99.90;;;;;;4976119;28;20609;-78
2023/07/21 01:25:07;;;;;;;2.50;1.50;;;15.10;99.90;;;;;;4967737;28;20138;-78
2023/07/21 01:27:53;;;;;;;3.75;1.52;;;15.10;99.90;;;;;;4982521;28;20045;-78
2023/07/21 01:30:39;;;;;;;2.85;1.40;;;15.20;99.90;;;;;;4986280;28;20617;-78
2023/07/21 01:33:26;;;;;;;3.15;1.30;;;15.10;99.90;;;;;;4974558;28;20572;-78
2023/07/21 01:36:12;;;;;;;3.03;1.38;;;15.10;99.90;;;;;;4974503;28;20069;-78
2023/07/21 01:38:58;;;;;;;4.32;1.50;;;15.10;99.90;;;;;;4974752;28;20045;-78
2023/07/21 01:41:44;;;;;;;2.30;1.40;;;15.10;99.90;;;;;;4986457;28;20042;-78
2023/07/21 01:44:30;;;;;;;3.38;1.63;;;15.20;99.90;;;;;;4999782;28;20076;-78
2023/07/21 01:47:16;;;;;;;3.35;1.45;;;15.10;99.90;;;;;;4986980;28;20088;-78
2023/07/21 01:50:03;;;;;;;2.65;1.58;;;15.20;99.90;;;;;;4974224;28;20088;-78
2023/07/21 01:52:50;;;;;;;3.38;1.50;;;15.20;99.90;;;;;;4987926;28;20034;-78
2023/07/21 01:55:46;;;;;;;5.65;1.65;;;15.20;99.90;;;;;;4987826;28;20042;-78
2023/07/21 01:58:32;;;;;;;3.03;1.50;;;15.20;99.90;;;;;;4981575;28;20034;-77
2023/07/21 02:01:18;;;;;;;4.53;1.50;;;15.30;99.90;;;;;;4987499;28;20080;-78
2023/07/21 02:04:04;;;;;;;3.75;1.50;;;15.30;99.90;;;;;;4981307;28;20127;-78
2023/07/21 02:06:50;;;;;;;2.40;1.42;;;15.30;99.90;;;;;;4980352;28;20048;-78
2023/07/21 02:09:36;;;;;;;3.08;1.45;;;15.20;99.90;;;;;;4976557;28;20134;-78
2023/07/21 02:12:22;;;;;;;4.05;1.60;;;15.20;99.90;;;;;;4980468;28;20198;-78
2023/07/21 02:15:09;;;;;;;2.53;1.40;;;15.20;99.90;;;;;;4966234;28;20042;-78
2023/07/21 02:17:55;;;;;;;2.75;1.55;;;15.30;99.90;;;;;;4981972;28;20046;-78
2023/07/21 02:20:41;;;;;;;2.28;1.25;;;15.30;99.90;;;;;;4994000;28;20045;-78
2023/07/21 02:23:28;;;;;;;2.40;1.45;;;15.30;99.90;;;;;;4993482;28;20045;-78
2023/07/21 02:26:14;;;;;;;3.45;1.30;;;15.30;99.90;;;;;;4995080;28;20142;-78
2023/07/21 02:29:00;;;;;;;2.30;1.40;;;15.30;99.90;;;;;;4982085;28;20046;-78
2023/07/21 02:31:50;;;;;;;3.42;1.63;;;15.30;99.90;;;;;;4993971;28;20042;-78
2023/07/21 02:34:37;;;;;;;2.97;1.30;;;15.30;99.90;;;;;;4980000;28;20038;-78
2023/07/21 02:37:25;;;;;;;3.85;1.60;;;15.30;99.90;;;;;;4979820;28;20045;-78
2023/07/21 02:40:12;;;;;;;3.03;1.35;;;15.30;99.90;;;;;;4991481;28;20077;-75
2023/07/21 02:42:58;;;;;;;3.05;1.40;;;15.30;99.90;;;;;;4991577;28;20038;-75
2023/07/21 02:45:53;;;;;;;4.68;2.05;;;15.30;99.90;;;;;;4972669;28;20042;-75
2023/07/21 02:48:39;;;;;;;5.00;1.48;;;15.30;99.90;;;;;;4985539;28;20514;-75
2023/07/21 02:51:25;;;;;;;3.47;1.25;;;15.30;99.90;;;;;;4970388;28;20560;-75
2023/07/21 02:54:11;;;;;;;4.68;1.27;;;15.20;99.90;;;;;;4966978;28;20046;-76
2023/07/21 02:56:58;;;;;;;4.72;1.50;;;15.20;99.90;;;;;;4981023;28;20042;-75
2023/07/21 02:59:44;;;;;;;2.30;1.35;;;15.20;99.90;;;;;;4980060;28;20088;-75
2023/07/21 03:02:33;;;;;;;2.65;1.40;;;15.20;99.90;;;;;;4999172;28;20037;-75
2023/07/21 03:05:20;;;;;;;5.55;1.55;;;15.20;99.90;;;;;;4975344;28;20042;-74
2023/07/21 03:08:06;;;;;;;4.10;1.63;;;15.30;99.90;;;;;;4981967;28;20715;-74
2023/07/21 03:10:53;;;;;;;3.20;1.75;;;15.20;99.90;;;;;;4982039;28;20050;-75
2023/07/21 03:13:40;;;;;;;2.33;1.60;;;14.70;99.90;;;;;;4991074;28;20417;-75
2023/07/21 03:16:26;;;;;;;5.25;1.40;;;14.70;99.90;;;;;;4988658;28;20585;-75
2023/07/21 03:19:12;;;;;;;2.78;1.50;;;14.90;99.90;;;;;;5015330;28;20056;-74
2023/07/21 03:22:00;;;;;;;3.72;1.60;;;14.90;99.90;;;;;;5005395;28;20096;-75
2023/07/21 03:24:46;;;;;;;2.55;1.55;;;14.90;99.90;;;;;;5016760;28;20135;-77
2023/07/21 03:27:33;;;;;;;2.78;1.60;;;14.80;99.90;;;;;;4989620;28;20680;-77
2023/07/21 03:30:19;;;;;;;5.03;2.00;;;14.80;99.90;;;;;;4985489;28;20073;-78
2023/07/21 03:33:05;;;;;;;2.53;1.42;;;14.90;99.90;;;;;;4994715;28;20038;-75
2023/07/21 03:36:01;;;;;;;3.97;1.63;;;14.90;99.90;;;;;;5001662;28;20050;-75
2023/07/21 03:38:47;;;;;;;3.15;1.60;;;14.90;99.90;;;;;;4985528;28;20046;-75
2023/07/21 03:41:33;;;;;;;2.60;1.52;;;15.00;99.90;;;;;;4993588;28;20708;-75
2023/07/21 03:44:19;;;;;;;2.90;1.60;;;15.00;99.90;;;;;;4986713;28;20033;-75
2023/07/21 03:47:06;;;;;;;3.60;1.70;;;15.00;99.90;;;;;;4987096;28;20037;-75
2023/07/21 03:49:52;;;;;;;3.22;1.63;;;15.00;99.90;;;;;;4983471;28;20780;-75
2023/07/21 03:52:41;;;;;;;4.28;1.65;;;15.00;99.90;;;;;;4982851;28;20129;-75
2023/07/21 03:55:27;;;;;;;4.38;2.03;;;15.10;99.90;;;;;;4992271;28;20049;-75
2023/07/21 03:58:13;;;;;;;3.33;1.67;;;15.00;99.90;;;;;;4995386;28;20463;-75
2023/07/21 04:00:59;;;;;;;4.05;1.70;;;15.10;99.90;;;;;;4998826;28;20054;-75
2023/07/21 04:03:47;;;;;;;5.63;1.65;;;15.00;99.90;;;;;;4999704;28;20639;-75
2023/07/21 04:06:33;;;;;;;4.30;1.65;;;15.10;99.90;;;;;;4987097;28;20069;-75
2023/07/21 04:09:19;;;;;;;4.55;1.83;;;15.10;99.90;;;;;;4999558;28;20073;-75
2023/07/21 04:12:06;;;;;;;3.17;1.77;;;15.10;99.90;;;;;;4987536;28;20046;-75
2023/07/21 04:14:52;;;;;;;4.95;1.80;;;15.10;99.90;;;;;;4987364;28;20046;-75
2023/07/21 04:17:38;;;;;;;2.50;1.60;;;15.10;99.90;;;;;;4984248;28;20124;-75
2023/07/21 04:20:24;;;;;;;2.53;1.63;;;15.10;99.90;;;;;;4999710;28;20041;-75
2023/07/21 04:23:10;;;;;;;4.07;1.75;;;15.10;99.90;;;;;;4996014;28;20070;-75
2023/07/21 04:25:56;;;;;;;2.28;1.17;;;15.10;99.90;;;;;;4975030;28;20041;-75
2023/07/21 04:28:42;;;;;;;4.32;1.75;;;15.20;99.90;;;;;;4979261;28;20073;-76
2023/07/21 04:31:28;;;;;;;4.03;1.65;;;15.10;99.90;;;;;;4999004;28;20041;-75
2023/07/21 04:34:14;;;;;;;3.83;1.48;;;15.20;99.90;;;;;;4996523;28;20052;-76
2023/07/21 04:37:00;;;;;;;3.05;1.45;;;15.20;99.90;;;;;;5014865;28;20125;-75
2023/07/21 04:39:46;;;;;;;4.50;1.58;;;15.20;99.90;;;;;;4999676;28;20073;-75
2023/07/21 04:42:33;;;;;;;5.03;1.77;;;15.20;99.90;;;;;;4986807;28;20033;-74
2023/07/21 04:45:19;;;;;;;11.02;2.50;;;15.20;99.90;;;;;;4985329;28;20175;-75
2023/07/21 04:48:05;;;;;;;6.68;1.90;;;15.20;99.90;;;;;;5001850;28;20189;-77
2023/07/21 04:50:52;;;;;;;3.78;1.67;;;15.20;99.90;;;;;;4981489;28;20057;-77
2023/07/21 04:53:38;;;;;;;3.00;1.65;;;15.30;99.90;;;;;;4988465;28;20042;-77
2023/07/21 04:56:26;;;;;;;4.90;1.50;;;15.30;99.90;;;;;;4968655;28;20072;-77
2023/07/21 04:59:12;;;;;;;4.35;1.70;;;15.30;99.90;;;;;;4990383;28;20045;-77
2023/07/21 05:01:58;;;;;;;2.42;1.60;;;15.30;99.90;;;;;;4986479;28;20046;-77
2023/07/21 05:04:44;;;;;;;2.72;1.60;;;15.30;99.90;;;;;;4986941;28;20081;-77
2023/07/21 05:07:30;;;;;;;4.78;1.70;;;15.30;99.90;;;;;;5000038;28;20548;-77
2023/07/21 05:10:16;;;;;;;3.22;1.60;;;15.30;99.90;;;;;;4987155;28;20049;-77
2023/07/21 05:13:05;;;;;;;3.38;1.63;;;15.30;99.90;;;;;;4986605;28;20029;-77
2023/07/21 05:15:51;;;;;;;4.60;1.88;;;15.40;99.90;;;;;;5001680;28;20049;-77
2023/07/21 05:18:37;;;;;;;3.25;1.77;;;15.40;99.90;;;;;;4999582;28;20071;-78
2023/07/21 05:21:24;;;;;;;3.85;1.95;;;15.40;99.90;;;;;;4999742;28;20400;-78
2023/07/21 05:24:12;;;;;;;5.15;1.67;;;15.50;99.90;;;;;;5000505;28;20029;-78
2023/07/21 05:27:01;;;;;;;3.65;1.58;;;15.50;99.90;;;;;;5000324;28;20037;-78
2023/07/21 05:29:48;;;;;;;3.88;1.60;;;15.50;99.90;;;;;;4971565;28;20128;-75
2023/07/21 05:32:34;;;;;;;3.42;1.90;;;15.60;99.90;;;;;;4970307;28;20045;-75
2023/07/21 05:35:22;;;;;;;4.47;1.98;;;15.60;99.90;;;;;;4985569;28;20533;-75
2023/07/21 05:38:09;;;;;;;6.03;1.70;;;15.70;99.90;;;;;;4999236;28;20462;-75
2023/07/21 05:40:57;;;;;;;2.80;1.47;;;15.70;99.90;;;;;;4985425;28;20069;-75
2023/07/21 05:43:48;;;;;;;3.03;1.75;;;15.70;99.90;;;;;;4995087;28;20038;-76
2023/07/21 05:46:46;;;;;;;4.75;1.70;;;15.80;99.90;;;;;;4985282;28;20057;-75
2023/07/21 05:49:41;;;;;;;5.40;2.00;;;15.80;99.90;;;;;;4981221;28;20109;-75
2023/07/21 05:52:33;;;;;;;5.15;1.90;;;15.90;99.90;;;;;;5003864;28;20045;-75
2023/07/21 05:55:31;;;;;;;6.00;1.63;;;15.90;99.90;;;;;;4992507;28;20038;-76
2023/07/21 05:58:18;;;;;;;4.93;1.77;;;15.90;99.90;;;;;;4983198;28;20035;-76
2023/07/21 06:01:04;;;;;;;6.97;2.00;;;16.00;99.90;;;;;;5005030;28;20038;-75
2023/07/21 06:03:50;;;;;;;5.00;2.00;;;16.00;99.90;;;;;;4969028;28;20050;-75
2023/07/21 06:06:36;;;;;;;2.72;1.42;;;16.00;99.90;;;;;;4977801;28;20092;-75
2023/07/21 06:09:23;;;;;;;5.95;2.00;;;16.00;99.90;;;;;;4984848;28;20046;-75
2023/07/21 06:12:09;;;;;;;6.25;1.67;;;16.00;99.90;;;;;;4986221;28;20049;-75
2023/07/21 06:14:56;;;;;;;4.43;1.73;;;16.00;99.90;;;;;;4998495;28;20061;-75
2023/07/21 06:17:42;;;;;;;5.37;2.13;;;16.10;99.90;;;;;;4984685;28;20046;-75
2023/07/21 06:20:28;;;;;;;3.65;1.70;;;16.10;99.90;;;;;;4997831;28;20042;-76
2023/07/21 06:23:14;;;;;;;6.90;1.80;;;16.00;99.90;;;;;;4985745;28;20843;-75
2023/07/21 06:26:00;;;;;;;5.57;1.90;;;16.10;99.90;;;;;;4984589;28;20046;-75
2023/07/21 06:28:46;;;;;;;4.32;1.65;;;16.10;99.90;;;;;;4982214;28;20109;-75
2023/07/21 06:31:33;;;;;;;5.50;2.50;;;16.10;99.90;;;;;;4988624;28;20037;-75
2023/07/21 06:34:22;;;;;;;4.53;1.80;;;16.10;99.90;;;;;;5004583;28;20045;-78
2023/07/21 06:37:08;;;;;;;5.20;2.05;;;16.10;99.90;;;;;;5003505;28;20127;-78
2023/07/21 06:39:54;;;;;;;5.40;2.42;;;16.10;99.90;;;;;;5004590;28;20378;-78
2023/07/21 06:42:44;;;;;;;3.22;1.80;;;16.10;99.90;;;;;;5004438;28;20034;-78
2023/07/21 06:45:30;;;;;;;5.20;2.10;;;16.10;99.90;;;;;;4999882;28;20049;-78
2023/07/21 06:48:16;;;;;;;3.13;1.65;;;16.20;99.90;;;;;;4989259;28;20042;-78
2023/07/21 06:51:02;;;;;;;4.78;1.63;;;16.20;99.90;;;;;;5004731;28;20678;-78
2023/07/21 06:53:49;;;;;;;6.90;2.08;;;16.20;99.90;;;;;;5004578;28;20042;-78
2023/07/21 06:56:35;;;;;;;7.68;1.70;;;16.20;99.90;;;;;;4976447;28;20426;-78
2023/07/21 06:59:21;;;;;;;4.15;1.70;;;16.30;99.90;;;;;;4984952;28;20054;-79
2023/07/21 07:02:09;;;;;;;4.78;2.05;;;16.40;99.90;;;;;;4983433;28;20048;-79
2023/07/21 07:04:55;;;;;;;3.73;1.97;;;16.40;99.90;;;;;;5000835;28;20374;-77
2023/07/21 07:07:41;;;;;;;5.95;2.30;;;16.40;99.90;;;;;;4986569;28;20273;-77
2023/07/21 07:10:27;;;;;;;5.18;1.83;;;16.50;99.90;;;;;;5002154;28;20069;-77
2023/07/21 07:13:13;;;;;;;2.92;1.45;;;16.60;99.90;;;;;;4969191;28;20121;-77
2023/07/21 07:15:59;;;;;;;4.22;1.63;;;16.60;99.90;;;;;;4992874;28;20037;-77
2023/07/21 07:18:45;;;;;;;4.32;1.90;;;16.70;99.90;;;;;;5017560;28;20042;-77
2023/07/21 07:21:31;;;;;;;5.95;2.17;;;16.70;99.90;;;;;;4996741;28;20038;-77
2023/07/21 07:24:18;;;;;;;2.92;1.90;;;16.70;99.90;;;;;;4990590;28;20041;-77
2023/07/21 07:27:05;;;;;;;3.10;1.55;;;16.80;99.90;;;;;;4988760;28;20482;-77
2023/07/21 07:29:51;;;;;;;4.05;2.15;;;16.80;99.90;;;;;;5016953;28;20042;-77
2023/07/21 07:32:37;;;;;;;3.08;1.63;;;16.90;99.90;;;;;;4981085;28;20042;-77
2023/07/21 07:35:23;;;;;;;3.58;1.90;;;16.90;99.90;;;;;;5000614;28;20041;-75
2023/07/21 07:38:09;;;;;;;3.40;1.70;;;17.00;99.90;;;;;;4984089;28;20046;-74
2023/07/21 07:41:00;;;;;;;8.35;2.00;;;17.00;99.90;;;;;;4984922;28;20038;-74
2023/07/21 07:43:46;;;;;;;5.55;1.75;;;17.00;99.90;;;;;;4985020;28;20037;-74
2023/07/21 07:46:32;;;;;;;5.68;1.67;;;17.00;99.90;;;;;;4984093;28;20084;-74
2023/07/21 07:49:18;;;;;;;4.18;1.70;;;17.10;99.90;;;;;;4986630;28;20046;-74
2023/07/21 07:52:07;;;;;;;4.60;1.83;;;17.10;99.90;;;;;;4999958;28;20469;-74
2023/07/21 07:54:53;;;;;;;2.78;1.70;;;17.20;99.90;;;;;;5001519;28;20042;-74
2023/07/21 07:57:39;;;;;;;5.63;1.88;;;17.20;99.90;;;;;;4983750;28;20069;-74
2023/07/21 08:00:25;;;;;;;3.75;2.03;;;17.30;99.90;;;;;;4996571;28;20037;-74
2023/07/21 08:03:11;;;;;;;3.90;1.40;;;17.30;99.90;;;;;;5000170;28;20061;-74
2023/07/21 08:05:58;;;;;;;4.20;1.80;;;17.40;99.90;;;;;;4999586;28;20124;-75
2023/07/21 08:08:45;;;;;;;5.32;2.38;;;17.40;99.90;;;;;;4985859;28;20787;-74
2023/07/21 08:11:31;;;;;;;4.38;1.85;;;17.50;99.90;;;;;;4989258;28;20053;-74
2023/07/21 08:14:17;;;;;;;3.42;1.60;;;17.50;99.90;;;;;;5001905;28;20527;-77
2023/07/21 08:17:04;;;;;;;4.10;1.88;;;17.60;99.90;;;;;;5001249;28;20041;-78
2023/07/21 08:19:50;;;;;;;4.72;1.88;;;17.70;99.90;;;;;;4986714;28;20116;-77
2023/07/21 08:22:36;;;;;;;7.60;2.30;;;17.80;99.90;;;;;;5000274;28;20066;-75
2023/07/21 08:25:22;;;;;;;5.45;2.35;;;17.90;99.90;;;;;;4997566;28;20045;-74
2023/07/21 08:28:08;;;;;;;4.75;2.13;;;17.90;99.90;;;;;;4986396;28;20049;-74
2023/07/21 08:30:54;;;;;;;5.10;2.20;;;17.90;99.90;;;;;;4985341;28;20426;-74
2023/07/21 08:33:40;;;;;;;4.90;1.90;;;17.90;99.90;;;;;;5003964;28;20037;-74
2023/07/21 08:36:26;;;;;;;4.15;2.10;;;18.00;99.90;;;;;;4997227;28;20795;-74
2023/07/21 08:39:13;;;;;;;5.32;2.70;;;18.00;99.90;;;;;;4999635;28;20057;-75
2023/07/21 08:41:59;;;;;;;4.30;2.10;;;18.10;99.90;;;;;;4998850;28;20122;-75
2023/07/21 08:44:45;;;;;;;3.40;2.08;;;18.30;99.90;;;;;;4982800;28;20128;-75
2023/07/21 08:47:32;;;;;;;6.13;2.53;;;18.30;99.90;;;;;;4982535;28;20101;-74
2023/07/21 08:50:19;;;;;;;4.57;1.95;;;18.40;99.90;;;;;;4986727;28;20038;-74
2023/07/21 08:53:05;;;;;;;5.95;2.40;;;18.40;99.90;;;;;;5005290;28;20076;-74
2023/07/21 08:55:59;;;;;;;4.75;2.20;;;18.50;99.90;;;;;;4977109;28;20038;-74
2023/07/21 08:58:45;;;;;;;5.63;2.30;;;18.70;99.90;;;;;;4980393;28;20046;-74
2023/07/21 09:01:31;;;;;;;4.65;2.05;;;18.70;99.90;;;;;;4985308;28;20352;-74
2023/07/21 09:04:41;;;;;;;4.40;2.28;;;18.60;99.90;;;;;;4972522;28;20055;-74
2023/07/21 09:07:27;;;;;;;5.25;2.20;;;18.70;99.90;;;;;;4973991;28;20042;-74
2023/07/21 09:10:27;;;;;;;6.47;2.10;;;18.70;99.90;;;;;;4972726;28;20039;-74
2023/07/21 09:13:21;;;;;;;5.93;2.42;;;18.80;99.90;;;;;;4955679;28;20038;-74
2023/07/21 09:16:08;;;;;;;6.20;2.47;;;19.00;99.90;;;;;;4968473;28;20039;-75
2023/07/21 09:18:54;;;;;;;5.22;2.40;;;19.00;99.90;;;;;;4967600;28;20050;-75
2023/07/21 09:21:40;;;;;;;5.35;2.30;;;19.20;99.90;;;;;;4962756;28;20082;-75
2023/07/21 09:24:26;;;;;;;4.95;2.40;;;19.30;99.80;;;;;;4959150;28;20041;-75
2023/07/21 09:27:16;;;;;;;5.15;2.10;;;19.40;99.90;;;;;;4974353;28;20133;-74
2023/07/21 09:30:03;;;;;;;5.65;2.10;;;19.60;99.70;;;;;;4956766;28;20078;-74
2023/07/21 09:32:53;;;;;;;4.25;1.55;;;19.40;99.20;;;;;;4962929;28;20053;-75
2023/07/21 09:35:40;;;;;;;4.05;2.03;;;19.40;99.30;;;;;;4954839;28;20085;-74
2023/07/21 09:38:26;;;;;;;2.25;1.35;;;19.30;98.90;;;;;;4971515;28;20057;-75
2023/07/21 09:41:13;;;;;;;4.32;1.52;;;19.40;99.10;;;;;;4968470;28;20039;-74
2023/07/21 09:43:59;;;;;;;3.73;1.50;;;19.50;98.50;;;;;;4975042;28;20404;-77
2023/07/21 09:46:45;;;;;;;3.03;1.80;;;19.70;98.70;;;;;;4972776;28;20042;-77
2023/07/21 09:49:31;;;;;;;2.42;1.60;;;19.70;97.60;;;;;;4973784;28;20054;-77
2023/07/21 09:52:18;;;;;;;3.20;1.60;;;19.60;98.30;;;;;;4978930;28;20051;-74
2023/07/21 09:55:10;;;;;;;3.28;1.50;;;19.70;98.50;;;;;;4964192;28;20419;-75
2023/07/21 09:57:56;;;;;;;4.05;1.42;;;19.80;98.40;;;;;;4972054;28;20050;-74
2023/07/21 10:00:44;;;;;;;1.98;1.25;;;20.10;98.30;;;;;;4972040;28;20054;-74
2023/07/21 10:03:31;;;;;;;2.20;1.30;;;20.10;96.70;;;;;;4981243;28;20054;-74
2023/07/21 10:06:17;;;;;;;2.08;1.20;;;20.10;97.10;;;;;;4991521;28;20077;-74
2023/07/21 10:09:03;;;;;;;1.80;1.13;;;20.20;96.50;;;;;;4973179;28;20073;-74
2023/07/21 10:11:49;;;;;;;1.55;1.30;;;20.40;95.90;;;;;;4975704;28;20046;-75
2023/07/21 10:14:37;;;;;;;2.22;1.40;;;20.40;95.90;;;;;;4991607;28;20125;-75
2023/07/21 10:17:24;;;;;;;1.58;1.15;;;20.50;95.90;;;;;;4968087;28;20038;-77
2023/07/21 10:20:11;;;;;;;2.25;1.38;;;20.70;96.10;;;;;;4995072;28;20042;-78
2023/07/21 10:22:57;;;;;;;1.40;1.20;;;20.50;95.80;;;;;;4964462;28;20614;-79
2023/07/21 10:25:47;;;;;;;2.70;1.55;;;20.60;96.40;;;;;;4976134;28;20259;-79
2023/07/21 10:28:33;;;;;;;1.65;1.20;;;20.60;95.90;;;;;;4984697;28;20054;-79
2023/07/21 10:31:25;;;;;;;2.20;1.15;;;20.60;95.40;;;;;;5003870;28;20048;-78
2023/07/21 10:34:14;;;;;;;3.50;1.42;;;20.70;94.60;;;;;;5013916;28;20076;-77
2023/07/21 10:37:02;;;;;;;3.10;1.70;;;20.80;94.60;;;;;;4999149;28;20048;-78
2023/07/21 10:39:54;;;;;;;2.75;1.10;;;20.80;94.80;;;;;;4970777;28;20067;-80
2023/07/21 10:42:41;;;;;;;1.40;1.00;;;20.90;95.00;;;;;;4991062;28;20052;-79
2023/07/21 10:45:28;;;;;;;2.17;1.40;;;20.90;94.90;;;;;;5002432;28;20042;-79
2023/07/21 10:48:15;;;;;;;2.17;1.15;;;21.10;94.80;;;;;;4994554;28;20189;-78
2023/07/21 10:51:01;;;;;;;3.08;1.30;;;21.20;94.70;;;;;;4991765;28;20057;-78
2023/07/21 10:53:48;;;;;;;3.10;1.30;;;21.30;94.30;;;;;;4997107;28;20464;-78
2023/07/21 10:56:35;;;;;;;1.85;1.20;;;21.40;94.20;;;;;;4974968;28;20081;-78
2023/07/21 10:59:25;;;;;;;1.55;1.17;;;21.40;94.60;;;;;;4984991;28;20494;-79
2023/07/21 11:02:12;;;;;;;2.92;1.20;;;21.50;94.20;;;;;;4966581;28;20507;-75
2023/07/21 11:05:01;;;;;;;2.60;1.23;;;21.30;94.40;;;;;;4974284;28;20515;-75
2023/07/21 11:07:48;;;;;;;3.63;1.05;;;21.40;94.50;;;;;;4976455;28;20719;-75
2023/07/21 11:10:34;;;;;;;1.40;1.25;;;21.60;94.90;;;;;;4991928;28;20042;-75
2023/07/21 11:13:22;;;;;;;4.47;1.20;;;21.70;93.70;;;;;;5000610;28;20041;-75
2023/07/21 11:16:09;;;;;;;4.20;1.20;;;21.40;92.90;;;;;;4970777;28;20045;-75
2023/07/21 11:18:56;;;;;;;1.38;1.08;;;21.40;93.30;;;;;;4996826;28;20172;-75
2023/07/21 11:21:42;;;;;;;2.20;1.20;;;21.50;93.20;;;;;;4988418;28;20487;-75
2023/07/21 11:24:29;;;;;;;2.70;1.50;;;21.40;92.10;;;;;;4996614;28;20046;-75
2023/07/21 11:27:15;;;;;;;4.35;2.30;;;21.50;92.40;;;;;;4993238;28;20034;-75
2023/07/21 11:30:02;;;;;;;1.65;1.30;;;21.80;92.70;;;;;;5002736;28;20101;-77
2023/07/21 11:32:48;;;;;;;1.98;1.00;;;22.00;91.90;;;;;;4971745;28;20050;-75
2023/07/21 11:35:34;;;;;;;2.00;0.98;;;21.80;90.50;;;;;;5004436;28;20128;-76
2023/07/21 11:38:20;;;;;;;1.77;1.08;;;21.90;91.10;;;;;;4994959;28;20046;-75
2023/07/21 11:41:09;;;;;;;2.88;1.38;;;22.10;90.60;;;;;;4979305;28;20105;-75
2023/07/21 11:43:55;;;;;;;2.60;1.30;;;21.80;90.70;;;;;;4985144;28;20077;-75
2023/07/21 11:46:41;;;;;;;2.05;1.30;;;21.90;91.70;;;;;;4999369;28;20049;-75
2023/07/21 11:49:28;;;;;;;3.13;1.08;;;21.90;91.20;;;;;;4992619;28;20453;-75
2023/07/21 11:52:24;;;;;;;2.75;1.80;;;21.90;91.50;;;;;;4994293;28;20092;-75
2023/07/21 11:55:10;;;;;;;1.88;1.20;;;21.70;90.40;;;;;;5012654;28;20042;-76
2023/07/21 11:57:56;;;;;;;4.10;1.52;;;21.50;90.90;;;;;;4987294;28;20064;-73
2023/07/21 12:00:43;;;;;;;2.38;1.58;;;20.80;93.50;;;;;;4990702;28;20042;-74
2023/07/21 12:03:29;;;;;;;1.40;1.20;;;20.70;94.30;;;;;;4999687;28;20061;-75
2023/07/21 12:06:15;;;;;;;2.30;1.25;;;20.80;94.40;;;;;;5011023;28;20455;-73
2023/07/21 12:09:05;;;;;;;3.55;1.50;;;21.10;94.30;;;;;;4989676;28;20050;-76
2023/07/21 12:11:55;;;;;;;2.60;1.55;;;21.40;94.40;;;;;;4987735;28;20074;-73
2023/07/21 12:14:44;;;;;;;3.05;1.50;;;21.50;94.00;;;;;;4978768;28;20482;-74
2023/07/21 12:17:30;;;;;;;2.83;1.48;;;21.70;94.20;;;;;;4988261;28;20137;-76
2023/07/21 12:20:17;;;;;;;2.03;1.30;;;21.20;94.70;;;;;;4986921;28;20342;-72
2023/07/21 12:23:03;;;;;;;1.90;1.23;;;21.60;95.50;;;;;;4989732;28;20431;-76
2023/07/21 12:25:49;;;;;;;2.15;1.30;;;21.80;94.80;;;;;;4997618;28;20121;-74
2023/07/21 12:28:35;;;;;;;2.08;1.10;;;22.00;94.90;;;;;;4981408;28;20046;-74
2023/07/21 12:31:21;;;;;;;3.75;1.17;;;22.10;94.50;;;;;;4981389;28;20104;-74
2023/07/21 12:34:08;;;;;;;3.15;1.25;;;22.40;94.30;;;;;;4990216;28;20802;-74
2023/07/21 12:36:57;;;;;;;3.15;1.42;;;22.50;94.00;;;;;;5006825;28;20096;-74
2023/07/21 12:39:54;;;;;;;2.80;1.48;;;22.50;93.30;;;;;;4985174;28;20038;-74
2023/07/21 12:42:40;;;;;;;2.00;1.30;;;22.60;93.20;;;;;;4984435;28;20042;-74
2023/07/21 12:45:26;;;;;;;3.13;1.45;;;22.30;92.90;;;;;;4981856;28;20582;-73
2023/07/21 12:48:12;;;;;;;2.15;1.50;;;22.50;93.10;;;;;;4987062;28;20112;-77
2023/07/21 12:50:58;;;;;;;1.90;1.15;;;22.70;92.70;;;;;;4974073;28;20046;-78
2023/07/21 12:53:44;;;;;;;1.92;1.25;;;22.60;91.80;;;;;;4985284;28;20096;-77
2023/07/21 12:56:31;;;;;;;1.90;1.15;;;22.50;91.70;;;;;;4998509;28;20038;-76
2023/07/21 12:59:20;;;;;;;1.67;1.13;;;22.10;92.20;;;;;;5012883;28;20045;-78
2023/07/21 13:02:06;;;;;;;1.30;1.20;;;22.20;92.70;;;;;;4986272;28;20045;-74
2023/07/21 13:04:52;;;;;;;2.35;1.50;;;22.00;91.90;;;;;;4985267;28;20180;-73
2023/07/21 13:07:41;;;;;;;2.22;1.27;;;21.70;92.20;;;;;;4976191;28;20034;-74
2023/07/21 13:10:27;;;;;;;1.85;1.08;;;21.80;92.30;;;;;;4970735;28;20042;-74
2023/07/21 13:13:13;;;;;;;4.18;1.10;;;21.90;93.00;;;;;;4996426;28;20045;-74
2023/07/21 13:15:59;;;;;;;2.78;1.42;;;22.10;93.20;;;;;;4975168;28;20042;-74
2023/07/21 13:18:45;;;;;;;3.33;1.30;;;22.20;93.20;;;;;;4996646;28;20104;-74
2023/07/21 13:21:31;;;;;;;1.70;1.00;;;22.10;93.20;;;;;;4992657;28;20038;-74
2023/07/21 13:24:42;;;;;;;1.73;1.27;;;22.20;93.40;;;;;;5009961;28;20541;-74
2023/07/21 13:27:32;;;;;;;3.25;1.30;;;22.10;93.50;;;;;;4995047;28;20045;-74
2023/07/21 13:30:30;;;;;;;3.83;1.00;;;22.00;93.40;;;;;;4993984;28;20041;-74
2023/07/21 13:33:29;;;;;;;2.88;1.45;;;21.90;93.60;;;;;;4963473;28;20084;-74
2023/07/21 13:36:26;;;;;;;2.05;1.10;;;21.80;93.90;;;;;;4985935;28;20045;-74
2023/07/21 13:39:15;;;;;;;5.68;1.20;;;21.80;93.70;;;;;;4982382;28;20061;-74
2023/07/21 13:42:21;;;;;;;2.65;1.45;;;21.70;93.30;;;;;;4985312;28;20034;-73
2023/07/21 13:45:10;;;;;;;1.83;1.30;;;21.10;91.80;;;;;;4984974;28;20064;-72
2023/07/21 13:47:59;;;;;;;3.80;1.20;;;20.70;91.20;;;;;;4992538;28;20042;-73
2023/07/21 13:50:50;;;;;;;3.13;1.10;;;20.50;91.90;;;;;;4984182;28;20038;-72
2023/07/21 13:53:39;;;;;;;3.20;1.48;;;20.30;92.60;;;;;;4979122;28;20045;-74
2023/07/21 13:56:33;;;;;;;3.15;1.60;;;20.30;92.80;;;;;;4986198;28;20037;-73
2023/07/21 13:59:25;;;;;;;3.58;1.50;;;20.10;92.80;;;;;;4991820;28;20120;-73
2023/07/21 14:02:21;;;;;;;3.45;1.63;;;20.00;93.40;;;;;;4997648;28;20374;-73
2023/07/21 14:05:19;;;;;;;4.43;1.85;;;19.90;94.30;;;;;;4991349;28;20046;-72
2023/07/21 14:08:16;;;;;;;5.13;2.50;;;19.70;95.30;;;;;;4978693;28;20042;-73
2023/07/21 14:11:23;;;;;;;3.03;2.25;;;19.70;95.70;;;;;;4979084;28;20046;-72
2023/07/21 14:14:12;;;;;;;4.72;2.42;;;19.50;96.20;;;;;;4980292;28;20054;-73
2023/07/21 14:16:58;;;;;;;5.30;2.70;;;19.10;99.40;;;;;;4978494;28;20046;-72
2023/07/21 14:19:55;;;;;;;5.70;2.83;;;19.10;99.90;;;;;;4983958;28;20076;-73
2023/07/21 14:22:53;;;;;;;6.67;2.53;;;19.30;99.90;;;;;;4969146;28;20097;-73
2023/07/21 14:25:39;;;;;;;3.53;2.35;;;19.40;99.80;;;;;;4979045;28;20273;-73
2023/07/21 14:28:53;;;;;;;6.85;2.67;;;19.50;99.80;;;;;;4990243;28;20121;-74
2023/07/21 14:31:44;;;;;;;7.25;2.70;;;19.60;99.90;;;;;;4978555;28;20513;-74
2023/07/21 14:34:33;;;;;;;5.35;2.50;;;19.50;99.90;;;;;;4985489;28;20054;-74